Terminal Aerodrome Forecast
Issued by NWS Green Bay, WI

Home | Current Version | Previous Version | Text Only | Print | Product List | Glossary Off
Versions: 1 2 3 4 5 6 7 8 9 10 11 12 13 14 15 16 17 18 19 20 21 22 23 24

000
FTUS43 KGRB 220500
TAFGRB
TAF
KGRB 220531Z 2206/2306 29011G17KT P6SM BKN035 BKN070
      TEMPO 2206/2209 4SM -SHSN BKN025
     FM221500 30015G24KT P6SM VCSH BKN040 BKN080
     FM230100 32007KT P6SM SCT040 BKN080=

USA.gov is the U.S. government's official web portal to all federal, state and local government web resources and services.